createdAt,value
2023-04-25T00:04:12.678Z,100.00
2023-04-25T00:09:16.587Z,100.00
2023-04-25T00:14:20.336Z,100.00
2023-04-25T00:19:25.756Z,100.00
2023-04-25T00:24:29.493Z,100.00
2023-04-25T00:29:33.196Z,100.00
2023-04-25T00:34:38.294Z,100.00
2023-04-25T00:39:42.187Z,100.00
2023-04-25T00:44:47.164Z,100.00
2023-04-25T00:49:52.304Z,100.00
2023-04-25T00:54:56.562Z,100.00
2023-04-25T01:00:00.976Z,100.00
2023-04-25T01:05:07.213Z,100.00
2023-04-25T01:10:12.446Z,100.00
2023-04-25T01:15:16.358Z,100.00
2023-04-25T01:20:24.369Z,100.00
2023-04-25T01:25:30.053Z,100.00
2023-04-25T01:30:34.494Z,100.00
2023-04-25T01:35:38.268Z,100.00
2023-04-25T01:40:43.462Z,100.00
2023-04-25T01:45:47.251Z,100.00
2023-04-25T01:50:51.281Z,100.00
2023-04-25T01:55:56.466Z,100.00
2023-04-25T02:01:01.373Z,100.00
2023-04-25T02:06:06.406Z,100.00
2023-04-25T02:11:12.662Z,100.00
2023-04-25T02:16:16.799Z,100.00
2023-04-25T02:21:20.615Z,100.00
2023-04-25T02:26:25.873Z,100.00
2023-04-25T02:31:29.624Z,100.00
2023-04-25T02:36:36.601Z,100.00
2023-04-25T02:41:41.647Z,100.00
2023-04-25T02:46:45.401Z,100.00
2023-04-25T02:51:49.095Z,100.00
2023-04-25T02:56:54.300Z,100.00
2023-04-25T03:01:58.102Z,100.00
2023-04-25T03:07:02.081Z,100.00
2023-04-25T03:12:08.504Z,100.00
2023-04-25T03:17:12.564Z,100.00
2023-04-25T03:22:16.342Z,100.00
2023-04-25T03:27:21.420Z,100.00
2023-04-25T03:32:25.263Z,100.00
2023-04-25T03:37:29.152Z,100.00
2023-04-25T03:42:34.361Z,100.00
2023-04-25T03:47:39.059Z,100.00
2023-04-25T03:52:42.972Z,100.00
2023-04-25T03:57:48.367Z,100.00
2023-04-25T04:02:53.740Z,100.00
2023-04-25T04:07:57.647Z,100.00
2023-04-25T04:13:03.131Z,100.00
2023-04-25T04:18:07.287Z,100.00
2023-04-25T04:23:11.671Z,100.00
2023-04-25T04:28:17.068Z,100.00
2023-04-25T04:33:22.266Z,100.00
2023-04-25T04:38:27.348Z,100.00
2023-04-25T04:43:34.347Z,100.00
2023-04-25T04:48:41.148Z,100.00
2023-04-25T04:53:45.998Z,100.00
2023-04-25T04:58:51.559Z,100.00
2023-04-25T05:04:01.177Z,100.00
2023-04-25T05:09:07.076Z,100.00
2023-04-25T05:14:12.840Z,100.00
2023-04-25T05:19:17.603Z,100.00
2023-04-25T05:24:21.405Z,100.00
2023-04-25T05:29:28.887Z,100.00
2023-04-25T05:34:33.246Z,100.00
2023-04-25T05:39:37.795Z,100.00
2023-04-25T05:44:43.253Z,100.00
2023-04-25T05:49:47.849Z,100.00
2023-04-25T05:54:52.338Z,100.00
2023-04-25T05:59:58.281Z,100.00
2023-04-25T06:05:05.160Z,100.00
2023-04-25T06:10:10.647Z,100.00
2023-04-25T06:15:27.997Z,100.00
2023-04-25T06:20:37.871Z,100.00
2023-04-25T06:25:41.680Z,100.00
2023-04-25T06:30:47.440Z,100.00
2023-04-25T06:35:51.448Z,100.00
2023-04-25T06:40:55.708Z,100.00
2023-04-25T06:46:01.074Z,100.00
2023-04-25T06:51:06.560Z,100.00
2023-04-25T06:56:11.638Z,100.00
2023-04-25T07:01:18.408Z,100.00
2023-04-25T07:06:22.362Z,100.00
2023-04-25T07:11:26.411Z,100.00
2023-04-25T07:16:31.730Z,100.00
2023-04-25T07:21:37.423Z,100.00
2023-04-25T07:26:42.204Z,100.00
2023-04-25T07:31:49.509Z,100.00
2023-04-25T07:36:53.594Z,100.00
2023-04-25T07:41:59.393Z,100.00
2023-04-25T07:47:08.086Z,100.00
2023-04-25T07:52:12.079Z,100.00
2023-04-25T07:57:19.549Z,100.00
2023-04-25T08:02:27.253Z,100.00
2023-04-25T08:07:31.089Z,100.00
2023-04-25T08:12:38.087Z,100.00
2023-04-25T08:17:46.581Z,100.00
2023-04-25T08:22:50.655Z,100.00
2023-04-25T08:27:57.570Z,100.00
2023-04-25T08:33:03.807Z,100.00
2023-04-25T08:38:08.993Z,100.00
2023-04-25T08:43:16.156Z,100.00
2023-04-25T08:48:23.459Z,100.00
2023-04-25T08:53:28.855Z,100.00
2023-04-25T08:58:35.378Z,100.00
2023-04-25T09:03:41.143Z,100.00
2023-04-25T09:08:45.082Z,100.00
2023-04-25T09:13:49.384Z,100.00
2023-04-25T09:18:56.037Z,100.00
2023-04-25T09:24:00.613Z,100.00
2023-04-25T09:29:08.884Z,100.00
2023-04-25T09:34:16.684Z,100.00
2023-04-25T09:39:22.489Z,100.00
2023-04-25T09:44:28.082Z,100.00
2023-04-25T09:49:34.034Z,100.00
2023-04-25T09:54:38.606Z,100.00
2023-04-25T09:59:46.831Z,100.00
2023-04-25T10:04:55.757Z,100.00
2023-04-25T10:10:03.332Z,100.00
2023-04-25T10:15:09.799Z,100.00
2023-04-25T10:20:15.438Z,100.00
2023-04-25T10:25:19.538Z,100.00
2023-04-25T10:30:23.248Z,95.10
2023-04-25T10:35:30.231Z,99.60
2023-04-25T10:40:34.369Z,93.18
2023-04-25T10:45:53.999Z,88.49
2023-04-25T10:51:10.843Z,84.92
2023-04-25T10:56:19.966Z,100.00
2023-04-25T11:01:27.063Z,100.00
2023-04-25T11:06:48.773Z,100.00
2023-04-25T11:11:56.923Z,92.90
2023-04-25T11:17:01.967Z,100.00
2023-04-25T11:22:08.003Z,100.00
2023-04-25T11:27:11.786Z,100.00
2023-04-25T11:32:16.570Z,100.00
2023-04-25T11:37:22.095Z,100.00
2023-04-25T11:42:25.906Z,100.00
2023-04-25T11:47:32.287Z,100.00
2023-04-25T11:52:41.598Z,100.00
2023-04-25T11:57:47.904Z,100.00
2023-04-25T12:02:54.840Z,88.84
2023-04-25T12:08:00.123Z,82.84
2023-04-25T12:13:20.515Z,82.10
2023-04-25T12:18:28.508Z,70.76
2023-04-25T12:23:33.644Z,83.71
2023-04-25T12:28:37.388Z,87.09
2023-04-25T12:33:42.289Z,84.11
2023-04-25T12:38:47.382Z,89.68
2023-04-25T12:43:51.275Z,76.52
2023-04-25T12:48:58.740Z,68.62
2023-04-25T12:54:09.350Z,63.03
2023-04-25T12:59:13.225Z,63.61
2023-04-25T13:04:17.525Z,67.33
2023-04-25T13:09:22.825Z,77.21
2023-04-25T13:14:26.539Z,83.11
2023-04-25T13:19:30.280Z,83.95
2023-04-25T13:24:35.593Z,83.75
2023-04-25T13:29:41.303Z,74.97
2023-04-25T13:34:45.012Z,73.35
2023-04-25T13:39:50.110Z,69.80
2023-04-25T13:44:53.783Z,68.14
2023-04-25T13:49:57.496Z,60.07
2023-04-25T13:55:04.433Z,55.37
2023-04-25T14:00:10.951Z,54.88
2023-04-25T14:05:14.797Z,53.89
2023-04-25T14:10:20.062Z,54.11
2023-04-25T14:15:24.199Z,53.31
2023-04-25T14:20:28.160Z,54.88
2023-04-25T14:25:33.379Z,53.62
2023-04-25T14:30:37.113Z,51.85
2023-04-25T14:35:40.997Z,50.29
2023-04-25T14:40:46.060Z,48.96
2023-04-25T14:45:49.969Z,45.62
2023-04-25T14:50:53.671Z,46.61
2023-04-25T14:55:58.764Z,49.61
2023-04-25T15:01:02.835Z,49.92
2023-04-25T15:06:07.728Z,50.29
2023-04-25T15:11:13.060Z,52.57
2023-04-25T15:16:16.902Z,51.46
2023-04-25T15:21:20.850Z,53.13
2023-04-25T15:26:25.985Z,53.58
2023-04-25T15:31:29.947Z,54.21
2023-04-25T15:36:34.086Z,54.55
2023-04-25T15:41:39.353Z,53.33
2023-04-25T15:46:44.391Z,48.71
2023-04-25T15:51:48.289Z,51.04
2023-04-25T15:56:53.726Z,51.05
2023-04-25T16:01:58.019Z,49.59
2023-04-25T16:07:01.826Z,50.12
2023-04-25T16:12:08.206Z,49.77
2023-04-25T16:17:11.930Z,45.99
2023-04-25T16:22:16.602Z,46.56
2023-04-25T16:27:22.165Z,46.73
2023-04-25T16:32:25.936Z,47.06
2023-04-25T16:37:29.824Z,45.98
2023-04-25T16:42:34.907Z,45.37
2023-04-25T16:47:38.661Z,44.30
2023-04-25T16:52:44.305Z,45.06
2023-04-25T16:57:49.947Z,45.17
2023-04-25T17:02:53.816Z,44.74
2023-04-25T17:07:57.844Z,44.64
2023-04-25T17:13:02.972Z,46.16
2023-04-25T17:18:07.062Z,46.85
2023-04-25T17:23:11.131Z,49.22
2023-04-25T17:28:16.188Z,50.97
2023-04-25T17:33:19.885Z,53.30
2023-04-25T17:38:23.664Z,55.85
2023-04-25T17:43:28.802Z,59.75
2023-04-25T17:48:32.501Z,60.24
2023-04-25T17:53:36.538Z,62.74
2023-04-25T17:58:41.584Z,61.88
2023-04-25T18:03:47.019Z,61.92
2023-04-25T18:08:51.362Z,64.18
2023-04-25T18:13:56.962Z,63.79
2023-04-25T18:19:05.347Z,63.76
2023-04-25T18:24:09.602Z,64.57
2023-04-25T18:29:29.094Z,70.60
2023-04-25T18:34:36.497Z,72.49
2023-04-25T18:39:40.684Z,75.10
2023-04-25T18:44:46.442Z,78.87
2023-04-25T18:49:50.821Z,82.73
2023-04-25T18:54:54.641Z,85.92
2023-04-25T19:00:04.678Z,88.56
2023-04-25T19:05:10.105Z,92.78
2023-04-25T19:10:13.829Z,95.28
2023-04-25T19:15:19.209Z,98.33
2023-04-25T19:20:22.930Z,100.00
2023-04-25T19:25:27.010Z,100.00
2023-04-25T19:30:32.948Z,100.00
2023-04-25T19:35:36.790Z,100.00
2023-04-25T19:40:40.450Z,100.00
2023-04-25T19:45:45.881Z,100.00
2023-04-25T19:50:49.648Z,100.00
2023-04-25T19:55:53.466Z,100.00
2023-04-25T20:00:58.578Z,100.00
2023-04-25T20:06:02.633Z,100.00
2023-04-25T20:11:06.843Z,100.00
2023-04-25T20:16:12.245Z,100.00
2023-04-25T20:21:17.423Z,100.00
2023-04-25T20:26:22.780Z,100.00
2023-04-25T20:31:28.260Z,100.00
2023-04-25T20:36:32.447Z,100.00
2023-04-25T20:41:37.573Z,100.00
2023-04-25T20:46:42.784Z,100.00
2023-04-25T20:51:46.492Z,100.00
2023-04-25T20:56:50.467Z,100.00
2023-04-25T21:01:55.756Z,100.00
2023-04-25T21:07:00.234Z,100.00
2023-04-25T21:12:03.997Z,100.00
2023-04-25T21:17:09.135Z,100.00
2023-04-25T21:22:13.009Z,100.00
2023-04-25T21:27:17.378Z,100.00
2023-04-25T21:32:22.451Z,100.00
2023-04-25T21:37:26.160Z,100.00
2023-04-25T21:42:29.857Z,100.00
2023-04-25T21:47:35.290Z,100.00
2023-04-25T21:52:39.183Z,100.00
2023-04-25T21:57:42.930Z,100.00
2023-04-25T22:02:48.235Z,100.00
2023-04-25T22:07:53.491Z,100.00
2023-04-25T22:12:57.220Z,100.00
2023-04-25T22:18:04.347Z,100.00
2023-04-25T22:23:08.171Z,100.00
2023-04-25T22:28:12.682Z,100.00
2023-04-25T22:33:17.767Z,100.00
2023-04-25T22:38:21.527Z,100.00
2023-04-25T22:43:26.114Z,100.00
2023-04-25T22:48:31.312Z,100.00
2023-04-25T22:53:37.385Z,100.00
2023-04-25T22:58:41.412Z,100.00
2023-04-25T23:03:46.617Z,100.00
2023-04-25T23:08:51.116Z,100.00
2023-04-25T23:13:55.087Z,100.00
2023-04-25T23:19:00.753Z,100.00
2023-04-25T23:24:05.082Z,100.00
2023-04-25T23:29:08.797Z,100.00
2023-04-25T23:34:13.816Z,100.00
2023-04-25T23:39:18.885Z,100.00
2023-04-25T23:44:22.690Z,100.00
2023-04-25T23:49:27.967Z,100.00
2023-04-25T23:54:31.755Z,100.00
2023-04-25T23:59:35.463Z,100.00
